FTTC

Abeche Airport

Chad
METAR FTTC 151200Z 10004KT CAVOK 33/03 Q1012
Observed Flight Rules
Dec-15 @ 12:00 UTC (2 hours ago) Visual Flight Rules
Wind Visibility Clouds
100° at 4 knots 10,000+ meters
  • Clear skies
Temperatures Readings
Current 33°C / 91°F
Dewpoint 3°C / 37°F
Humidity 15%
Altimeter 29.88" Hg
Pressure 1012 hPa
Elevation 549
METAR FTTC 151200Z 10004KT CAVOK 33/03 Q1012
Observed Flight Rules
Dec-15 @ 12:00 UTC
(2 hours ago)
VFR
Wind Visibility
100° at 4 knots 10,000+ meters
Clouds
  • Clear skies
Temperature Dewpoint
33°C / 91°F 3°C / 37°F
Humidity Altimeter Pressure
15% 29.88" Hg 1012 hPa